sensor_id;sensor_type;location;lat;lon;timestamp;temperature;humidity
62809;DHT22;48848;39.002;-94.584;2022-12-24T00:00:15;13.80;30.10
62809;DHT22;48848;39.002;-94.584;2022-12-24T00:02:40;13.40;30.80
62809;DHT22;48848;39.002;-94.584;2022-12-24T00:05:07;13.00;31.80
62809;DHT22;48848;39.002;-94.584;2022-12-24T00:07:33;12.80;31.70
62809;DHT22;48848;39.002;-94.584;2022-12-24T00:09:59;12.80;31.90
62809;DHT22;48848;39.002;-94.584;2022-12-24T00:12:24;13.10;31.70
62809;DHT22;48848;39.002;-94.584;2022-12-24T00:14:50;13.40;30.60
62809;DHT22;48848;39.002;-94.584;2022-12-24T00:17:16;13.60;30.00
62809;DHT22;48848;39.002;-94.584;2022-12-24T00:19:42;13.80;29.70
62809;DHT22;48848;39.002;-94.584;2022-12-24T00:22:08;14.00;28.40
62809;DHT22;48848;39.002;-94.584;2022-12-24T00:24:34;14.10;29.10
62809;DHT22;48848;39.002;-94.584;2022-12-24T00:26:59;14.00;29.10
62809;DHT22;48848;39.002;-94.584;2022-12-24T00:29:26;13.60;29.90
62809;DHT22;48848;39.002;-94.584;2022-12-24T00:31:52;13.10;30.00
62809;DHT22;48848;39.002;-94.584;2022-12-24T00:34:18;12.90;30.50
62809;DHT22;48848;39.002;-94.584;2022-12-24T00:36:44;12.60;30.60
62809;DHT22;48848;39.002;-94.584;2022-12-24T00:39:10;12.60;30.00
62809;DHT22;48848;39.002;-94.584;2022-12-24T00:41:36;12.90;29.50
62809;DHT22;48848;39.002;-94.584;2022-12-24T00:44:03;13.20;29.40
62809;DHT22;48848;39.002;-94.584;2022-12-24T00:46:34;13.50;29.10
62809;DHT22;48848;39.002;-94.584;2022-12-24T00:49:00;13.80;29.00
62809;DHT22;48848;39.002;-94.584;2022-12-24T00:51:26;14.00;28.90
62809;DHT22;48848;39.002;-94.584;2022-12-24T00:53:52;14.10;28.70
62809;DHT22;48848;39.002;-94.584;2022-12-24T00:56:19;13.80;29.20
62809;DHT22;48848;39.002;-94.584;2022-12-24T00:58:45;13.30;29.40
62809;DHT22;48848;39.002;-94.584;2022-12-24T01:01:11;12.80;29.70
62809;DHT22;48848;39.002;-94.584;2022-12-24T01:03:37;12.80;29.50
62809;DHT22;48848;39.002;-94.584;2022-12-24T01:06:03;13.00;29.20
62809;DHT22;48848;39.002;-94.584;2022-12-24T01:08:30;13.30;28.70
62809;DHT22;48848;39.002;-94.584;2022-12-24T01:10:56;13.50;28.70
62809;DHT22;48848;39.002;-94.584;2022-12-24T01:13:22;13.70;28.70
62809;DHT22;48848;39.002;-94.584;2022-12-24T01:15:48;13.90;28.50
62809;DHT22;48848;39.002;-94.584;2022-12-24T01:18:14;14.10;28.30
62809;DHT22;48848;39.002;-94.584;2022-12-24T01:20:41;14.20;28.20
62809;DHT22;48848;39.002;-94.584;2022-12-24T01:23:07;14.20;27.90
62809;DHT22;48848;39.002;-94.584;2022-12-24T01:25:33;14.20;28.10
62809;DHT22;48848;39.002;-94.584;2022-12-24T01:27:58;13.80;28.80
62809;DHT22;48848;39.002;-94.584;2022-12-24T01:30:24;13.30;29.20
62809;DHT22;48848;39.002;-94.584;2022-12-24T01:32:50;13.00;29.70
62809;DHT22;48848;39.002;-94.584;2022-12-24T01:35:16;12.80;29.30
62809;DHT22;48848;39.002;-94.584;2022-12-24T01:37:42;12.80;28.80
62809;DHT22;48848;39.002;-94.584;2022-12-24T01:40:09;13.00;29.30
62809;DHT22;48848;39.002;-94.584;2022-12-24T01:42:57;13.30;28.70
62809;DHT22;48848;39.002;-94.584;2022-12-24T01:45:49;13.60;28.50
62809;DHT22;48848;39.002;-94.584;2022-12-24T01:50:47;14.00;28.40
62809;DHT22;48848;39.002;-94.584;2022-12-24T01:53:15;14.10;28.00
62809;DHT22;48848;39.002;-94.584;2022-12-24T01:55:42;14.20;28.10
62809;DHT22;48848;39.002;-94.584;2022-12-24T01:58:09;13.90;28.20
62809;DHT22;48848;39.002;-94.584;2022-12-24T02:00:35;13.50;28.90
62809;DHT22;48848;39.002;-94.584;2022-12-24T02:03:01;13.20;29.20
62809;DHT22;48848;39.002;-94.584;2022-12-24T02:05:28;12.80;29.50
62809;DHT22;48848;39.002;-94.584;2022-12-24T02:07:55;12.80;29.30
62809;DHT22;48848;39.002;-94.584;2022-12-24T02:10:21;13.10;29.10
62809;DHT22;48848;39.002;-94.584;2022-12-24T02:12:47;13.40;28.60
62809;DHT22;48848;39.002;-94.584;2022-12-24T02:15:14;13.60;28.30
62809;DHT22;48848;39.002;-94.584;2022-12-24T02:30:33;13.70;28.40
62809;DHT22;48848;39.002;-94.584;2022-12-24T02:35:37;13.00;29.20
62809;DHT22;48848;39.002;-94.584;2022-12-24T02:40:53;12.80;28.80
62809;DHT22;48848;39.002;-94.584;2022-12-24T02:43:22;13.20;28.80
62809;DHT22;48848;39.002;-94.584;2022-12-24T02:45:54;13.50;28.40
62809;DHT22;48848;39.002;-94.584;2022-12-24T02:48:20;13.70;27.80
62809;DHT22;48848;39.002;-94.584;2022-12-24T02:50:54;13.80;28.30
62809;DHT22;48848;39.002;-94.584;2022-12-24T02:53:20;14.00;27.70
62809;DHT22;48848;39.002;-94.584;2022-12-24T03:00:54;13.60;28.90
62809;DHT22;48848;39.002;-94.584;2022-12-24T03:03:39;13.20;29.10
62809;DHT22;48848;39.002;-94.584;2022-12-24T03:08:43;12.80;29.30
62809;DHT22;48848;39.002;-94.584;2022-12-24T03:11:12;13.00;28.90
62809;DHT22;48848;39.002;-94.584;2022-12-24T03:13:40;13.10;28.50
62809;DHT22;48848;39.002;-94.584;2022-12-24T03:16:08;13.30;28.50
62809;DHT22;48848;39.002;-94.584;2022-12-24T03:18:35;13.60;28.20
62809;DHT22;48848;39.002;-94.584;2022-12-24T03:21:10;13.70;27.80
62809;DHT22;48848;39.002;-94.584;2022-12-24T03:23:36;13.90;28.20
62809;DHT22;48848;39.002;-94.584;2022-12-24T03:26:04;14.00;27.80
62809;DHT22;48848;39.002;-94.584;2022-12-24T03:28:30;13.70;28.50
62809;DHT22;48848;39.002;-94.584;2022-12-24T03:30:59;13.40;29.00
62809;DHT22;48848;39.002;-94.584;2022-12-24T03:33:25;13.10;29.20
62809;DHT22;48848;39.002;-94.584;2022-12-24T03:35:51;12.80;29.60
62809;DHT22;48848;39.002;-94.584;2022-12-24T03:38:17;12.90;29.40
62809;DHT22;48848;39.002;-94.584;2022-12-24T03:40:42;13.10;29.00
62809;DHT22;48848;39.002;-94.584;2022-12-24T03:43:08;13.30;28.20
62809;DHT22;48848;39.002;-94.584;2022-12-24T03:45:34;13.50;28.50
62809;DHT22;48848;39.002;-94.584;2022-12-24T03:48:00;13.80;28.00
62809;DHT22;48848;39.002;-94.584;2022-12-24T03:50:26;13.80;28.20
62809;DHT22;48848;39.002;-94.584;2022-12-24T03:52:52;13.50;28.60
62809;DHT22;48848;39.002;-94.584;2022-12-24T03:55:18;13.20;29.10
62809;DHT22;48848;39.002;-94.584;2022-12-24T03:57:44;12.80;29.50
62809;DHT22;48848;39.002;-94.584;2022-12-24T04:00:10;12.50;29.90
62809;DHT22;48848;39.002;-94.584;2022-12-24T04:02:36;12.30;30.00
62809;DHT22;48848;39.002;-94.584;2022-12-24T04:05:02;12.00;30.10
62809;DHT22;48848;39.002;-94.584;2022-12-24T04:07:28;12.00;30.10
62809;DHT22;48848;39.002;-94.584;2022-12-24T04:09:54;11.80;29.90
62809;DHT22;48848;39.002;-94.584;2022-12-24T04:12:19;11.60;30.10
62809;DHT22;48848;39.002;-94.584;2022-12-24T04:14:45;11.50;30.00
62809;DHT22;48848;39.002;-94.584;2022-12-24T04:17:11;11.40;30.20
62809;DHT22;48848;39.002;-94.584;2022-12-24T04:19:37;11.30;29.90
62809;DHT22;48848;39.002;-94.584;2022-12-24T04:22:03;11.10;30.00
62809;DHT22;48848;39.002;-94.584;2022-12-24T04:24:29;10.90;29.90
62809;DHT22;48848;39.002;-94.584;2022-12-24T04:26:55;10.80;30.30
62809;DHT22;48848;39.002;-94.584;2022-12-24T04:29:20;10.80;30.30
62809;DHT22;48848;39.002;-94.584;2022-12-24T04:31:46;10.70;30.10
62809;DHT22;48848;39.002;-94.584;2022-12-24T04:34:12;10.50;30.20
62809;DHT22;48848;39.002;-94.584;2022-12-24T04:36:38;10.50;30.10
62809;DHT22;48848;39.002;-94.584;2022-12-24T04:39:04;10.30;30.80
62809;DHT22;48848;39.002;-94.584;2022-12-24T04:41:30;10.30;30.90
62809;DHT22;48848;39.002;-94.584;2022-12-24T04:43:56;10.20;30.70
62809;DHT22;48848;39.002;-94.584;2022-12-24T04:46:24;10.10;30.60
62809;DHT22;48848;39.002;-94.584;2022-12-24T04:48:50;10.10;30.60
62809;DHT22;48848;39.002;-94.584;2022-12-24T04:51:17;10.00;30.90
62809;DHT22;48848;39.002;-94.584;2022-12-24T04:53:43;9.90;30.70
62809;DHT22;48848;39.002;-94.584;2022-12-24T04:56:10;9.80;30.80
62809;DHT22;48848;39.002;-94.584;2022-12-24T04:58:37;9.80;31.00
62809;DHT22;48848;39.002;-94.584;2022-12-24T05:01:06;9.80;30.90
62809;DHT22;48848;39.002;-94.584;2022-12-24T05:03:32;9.70;30.60
62809;DHT22;48848;39.002;-94.584;2022-12-24T05:06:05;9.70;31.00
62809;DHT22;48848;39.002;-94.584;2022-12-24T05:08:31;9.70;30.90
62809;DHT22;48848;39.002;-94.584;2022-12-24T05:10:59;9.60;30.50
62809;DHT22;48848;39.002;-94.584;2022-12-24T05:13:25;9.40;30.80
62809;DHT22;48848;39.002;-94.584;2022-12-24T05:15:51;9.30;30.80
62809;DHT22;48848;39.002;-94.584;2022-12-24T05:18:17;9.30;30.70
62809;DHT22;48848;39.002;-94.584;2022-12-24T05:20:43;9.20;30.90
62809;DHT22;48848;39.002;-94.584;2022-12-24T05:23:14;9.60;30.40
62809;DHT22;48848;39.002;-94.584;2022-12-24T05:25:58;10.00;30.20
62809;DHT22;48848;39.002;-94.584;2022-12-24T05:28:42;10.40;29.70
62809;DHT22;48848;39.002;-94.584;2022-12-24T05:31:08;10.70;29.10
62809;DHT22;48848;39.002;-94.584;2022-12-24T05:33:34;10.50;29.90
62809;DHT22;48848;39.002;-94.584;2022-12-24T05:36:00;10.30;30.00
62809;DHT22;48848;39.002;-94.584;2022-12-24T05:38:26;10.10;30.50
62809;DHT22;48848;39.002;-94.584;2022-12-24T05:40:51;9.90;30.40
62809;DHT22;48848;39.002;-94.584;2022-12-24T05:43:17;9.70;30.70
62809;DHT22;48848;39.002;-94.584;2022-12-24T05:45:43;9.60;30.80
62809;DHT22;48848;39.002;-94.584;2022-12-24T05:48:09;9.90;30.70
62809;DHT22;48848;39.002;-94.584;2022-12-24T05:50:35;10.20;30.00
62809;DHT22;48848;39.002;-94.584;2022-12-24T05:53:01;10.50;29.20
62809;DHT22;48848;39.002;-94.584;2022-12-24T05:55:27;10.80;29.50
62809;DHT22;48848;39.002;-94.584;2022-12-24T05:57:52;11.00;29.30
62809;DHT22;48848;39.002;-94.584;2022-12-24T06:00:18;11.30;29.10
62809;DHT22;48848;39.002;-94.584;2022-12-24T06:02:44;11.50;29.00
62809;DHT22;48848;39.002;-94.584;2022-12-24T06:05:10;11.70;28.50
62809;DHT22;48848;39.002;-94.584;2022-12-24T06:07:36;11.90;28.70
62809;DHT22;48848;39.002;-94.584;2022-12-24T06:10:02;12.00;28.70
62809;DHT22;48848;39.002;-94.584;2022-12-24T06:12:28;12.00;28.10
62809;DHT22;48848;39.002;-94.584;2022-12-24T06:14:54;12.10;28.30
62809;DHT22;48848;39.002;-94.584;2022-12-24T06:17:20;12.30;28.20
62809;DHT22;48848;39.002;-94.584;2022-12-24T06:19:46;12.30;28.10
62809;DHT22;48848;39.002;-94.584;2022-12-24T06:22:12;12.40;28.50
62809;DHT22;48848;39.002;-94.584;2022-12-24T06:24:37;12.50;27.70
62809;DHT22;48848;39.002;-94.584;2022-12-24T06:27:03;12.60;28.30
62809;DHT22;48848;39.002;-94.584;2022-12-24T06:29:29;12.70;28.10
62809;DHT22;48848;39.002;-94.584;2022-12-24T06:31:55;12.90;28.00
62809;DHT22;48848;39.002;-94.584;2022-12-24T06:34:21;13.00;28.00
62809;DHT22;48848;39.002;-94.584;2022-12-24T06:36:47;13.00;28.10
62809;DHT22;48848;39.002;-94.584;2022-12-24T06:39:12;13.10;28.00
62809;DHT22;48848;39.002;-94.584;2022-12-24T06:41:38;13.20;28.10
62809;DHT22;48848;39.002;-94.584;2022-12-24T06:44:04;13.20;27.80
62809;DHT22;48848;39.002;-94.584;2022-12-24T06:46:30;13.20;27.90
62809;DHT22;48848;39.002;-94.584;2022-12-24T06:48:56;13.30;27.70
62809;DHT22;48848;39.002;-94.584;2022-12-24T06:51:22;13.40;27.60
62809;DHT22;48848;39.002;-94.584;2022-12-24T06:53:48;13.50;27.40
62809;DHT22;48848;39.002;-94.584;2022-12-24T06:56:15;13.50;27.60
62809;DHT22;48848;39.002;-94.584;2022-12-24T06:58:41;13.60;27.60
62809;DHT22;48848;39.002;-94.584;2022-12-24T07:01:08;13.60;27.50
62809;DHT22;48848;39.002;-94.584;2022-12-24T07:03:35;13.70;27.60
62809;DHT22;48848;39.002;-94.584;2022-12-24T07:06:00;13.60;27.70
62809;DHT22;48848;39.002;-94.584;2022-12-24T07:08:27;13.70;27.40
62809;DHT22;48848;39.002;-94.584;2022-12-24T07:10:53;13.70;27.70
62809;DHT22;48848;39.002;-94.584;2022-12-24T07:13:19;13.80;27.60
62809;DHT22;48848;39.002;-94.584;2022-12-24T07:15:44;13.80;27.20
62809;DHT22;48848;39.002;-94.584;2022-12-24T07:18:10;13.80;27.50
62809;DHT22;48848;39.002;-94.584;2022-12-24T07:20:37;14.00;27.50
62809;DHT22;48848;39.002;-94.584;2022-12-24T07:23:03;14.10;27.60
62809;DHT22;48848;39.002;-94.584;2022-12-24T07:25:29;14.20;27.60
62809;DHT22;48848;39.002;-94.584;2022-12-24T07:27:55;14.30;27.40
62809;DHT22;48848;39.002;-94.584;2022-12-24T07:30:21;14.30;27.00
62809;DHT22;48848;39.002;-94.584;2022-12-24T07:32:47;14.30;27.00
62809;DHT22;48848;39.002;-94.584;2022-12-24T07:35:13;14.30;27.20
62809;DHT22;48848;39.002;-94.584;2022-12-24T07:37:39;14.40;27.50
62809;DHT22;48848;39.002;-94.584;2022-12-24T07:40:05;14.50;27.30
62809;DHT22;48848;39.002;-94.584;2022-12-24T07:42:34;14.50;27.30
62809;DHT22;48848;39.002;-94.584;2022-12-24T07:45:00;14.50;27.10
62809;DHT22;48848;39.002;-94.584;2022-12-24T07:47:26;14.60;27.30
62809;DHT22;48848;39.002;-94.584;2022-12-24T07:49:51;14.60;27.30
62809;DHT22;48848;39.002;-94.584;2022-12-24T07:52:17;14.60;27.10
62809;DHT22;48848;39.002;-94.584;2022-12-24T07:54:43;14.50;26.90
62809;DHT22;48848;39.002;-94.584;2022-12-24T07:57:09;14.00;27.90
62809;DHT22;48848;39.002;-94.584;2022-12-24T07:59:35;13.50;28.10
62809;DHT22;48848;39.002;-94.584;2022-12-24T08:02:01;13.20;28.50
62809;DHT22;48848;39.002;-94.584;2022-12-24T08:04:26;12.90;28.30
62809;DHT22;48848;39.002;-94.584;2022-12-24T08:06:52;13.10;28.30
62809;DHT22;48848;39.002;-94.584;2022-12-24T08:09:18;13.30;28.10
62809;DHT22;48848;39.002;-94.584;2022-12-24T08:11:44;13.60;28.10
62809;DHT22;48848;39.002;-94.584;2022-12-24T08:14:10;13.80;27.60
62809;DHT22;48848;39.002;-94.584;2022-12-24T08:16:36;14.00;27.40
62809;DHT22;48848;39.002;-94.584;2022-12-24T08:19:02;14.10;27.40
62809;DHT22;48848;39.002;-94.584;2022-12-24T08:21:27;14.20;27.30
62809;DHT22;48848;39.002;-94.584;2022-12-24T08:23:53;14.30;27.30
62809;DHT22;48848;39.002;-94.584;2022-12-24T08:26:19;14.40;27.30
62809;DHT22;48848;39.002;-94.584;2022-12-24T08:28:45;14.50;27.00
62809;DHT22;48848;39.002;-94.584;2022-12-24T08:31:11;14.10;27.10
62809;DHT22;48848;39.002;-94.584;2022-12-24T08:33:37;13.70;27.70
62809;DHT22;48848;39.002;-94.584;2022-12-24T08:36:02;13.30;28.30
62809;DHT22;48848;39.002;-94.584;2022-12-24T08:38:28;12.90;28.30
62809;DHT22;48848;39.002;-94.584;2022-12-24T08:40:54;12.90;28.40
62809;DHT22;48848;39.002;-94.584;2022-12-24T08:43:20;13.10;28.20
62809;DHT22;48848;39.002;-94.584;2022-12-24T08:45:46;13.40;28.10
62809;DHT22;48848;39.002;-94.584;2022-12-24T08:48:13;13.70;27.50
62809;DHT22;48848;39.002;-94.584;2022-12-24T08:50:40;13.80;28.00
62809;DHT22;48848;39.002;-94.584;2022-12-24T08:53:06;14.00;27.10
62809;DHT22;48848;39.002;-94.584;2022-12-24T08:55:32;14.10;27.30
62809;DHT22;48848;39.002;-94.584;2022-12-24T08:57:58;14.20;27.20
62809;DHT22;48848;39.002;-94.584;2022-12-24T09:00:24;14.30;27.20
62809;DHT22;48848;39.002;-94.584;2022-12-24T09:02:50;14.40;27.00
62809;DHT22;48848;39.002;-94.584;2022-12-24T09:05:16;14.20;26.70
62809;DHT22;48848;39.002;-94.584;2022-12-24T09:07:42;13.80;27.60
62809;DHT22;48848;39.002;-94.584;2022-12-24T09:10:08;13.40;27.90
62809;DHT22;48848;39.002;-94.584;2022-12-24T09:12:35;13.10;28.40
62809;DHT22;48848;39.002;-94.584;2022-12-24T09:15:01;12.80;28.50
62809;DHT22;48848;39.002;-94.584;2022-12-24T09:17:27;12.90;28.30
62809;DHT22;48848;39.002;-94.584;2022-12-24T09:19:53;13.20;28.10
62809;DHT22;48848;39.002;-94.584;2022-12-24T09:22:19;13.40;27.80
62809;DHT22;48848;39.002;-94.584;2022-12-24T09:24:45;13.60;28.20
62809;DHT22;48848;39.002;-94.584;2022-12-24T09:27:11;13.80;27.20
62809;DHT22;48848;39.002;-94.584;2022-12-24T09:29:37;13.90;27.40
62809;DHT22;48848;39.002;-94.584;2022-12-24T09:32:05;14.10;27.30
62809;DHT22;48848;39.002;-94.584;2022-12-24T09:34:31;14.20;27.20
62809;DHT22;48848;39.002;-94.584;2022-12-24T09:36:57;14.30;26.40
62809;DHT22;48848;39.002;-94.584;2022-12-24T09:39:25;14.20;26.80
62809;DHT22;48848;39.002;-94.584;2022-12-24T09:42:16;13.90;27.30
62809;DHT22;48848;39.002;-94.584;2022-12-24T09:44:44;13.50;27.90
62809;DHT22;48848;39.002;-94.584;2022-12-24T09:47:15;13.20;28.30
62809;DHT22;48848;39.002;-94.584;2022-12-24T09:49:45;12.80;28.30
62809;DHT22;48848;39.002;-94.584;2022-12-24T09:52:13;12.80;28.10
62809;DHT22;48848;39.002;-94.584;2022-12-24T09:54:40;13.10;28.10
62809;DHT22;48848;39.002;-94.584;2022-12-24T09:57:11;13.40;27.60
62809;DHT22;48848;39.002;-94.584;2022-12-24T09:59:43;13.60;27.40
62809;DHT22;48848;39.002;-94.584;2022-12-24T10:02:10;13.70;27.40
62809;DHT22;48848;39.002;-94.584;2022-12-24T10:04:36;13.90;27.20
62809;DHT22;48848;39.002;-94.584;2022-12-24T10:12:05;14.20;26.80
62809;DHT22;48848;39.002;-94.584;2022-12-24T10:24:42;12.90;28.30
62809;DHT22;48848;39.002;-94.584;2022-12-24T10:27:12;12.80;27.90
62809;DHT22;48848;39.002;-94.584;2022-12-24T10:29:43;12.90;28.10
62809;DHT22;48848;39.002;-94.584;2022-12-24T10:32:31;13.30;27.70
62809;DHT22;48848;39.002;-94.584;2022-12-24T10:35:00;13.50;27.50
62809;DHT22;48848;39.002;-94.584;2022-12-24T10:37:29;13.70;26.90
62809;DHT22;48848;39.002;-94.584;2022-12-24T10:39:55;13.80;27.00
62809;DHT22;48848;39.002;-94.584;2022-12-24T10:42:23;14.00;27.00
62809;DHT22;48848;39.002;-94.584;2022-12-24T10:44:51;14.10;27.00
62809;DHT22;48848;39.002;-94.584;2022-12-24T10:47:19;14.20;26.70
62809;DHT22;48848;39.002;-94.584;2022-12-24T10:49:46;14.20;26.80
62809;DHT22;48848;39.002;-94.584;2022-12-24T10:52:14;14.00;27.20
62809;DHT22;48848;39.002;-94.584;2022-12-24T10:57:26;13.20;27.80
62809;DHT22;48848;39.002;-94.584;2022-12-24T10:59:53;12.90;28.00
62809;DHT22;48848;39.002;-94.584;2022-12-24T11:04:57;12.90;27.90
62809;DHT22;48848;39.002;-94.584;2022-12-24T11:07:28;13.20;27.20
62809;DHT22;48848;39.002;-94.584;2022-12-24T11:09:57;13.40;27.00
62809;DHT22;48848;39.002;-94.584;2022-12-24T11:12:28;13.60;27.00
62809;DHT22;48848;39.002;-94.584;2022-12-24T11:18:02;13.80;26.90
62809;DHT22;48848;39.002;-94.584;2022-12-24T11:20:30;13.90;26.40
62809;DHT22;48848;39.002;-94.584;2022-12-24T11:22:56;14.10;26.70
62809;DHT22;48848;39.002;-94.584;2022-12-24T11:25:29;13.90;26.70
62809;DHT22;48848;39.002;-94.584;2022-12-24T11:28:12;13.60;27.40
62809;DHT22;48848;39.002;-94.584;2022-12-24T11:30:42;13.10;27.80
62809;DHT22;48848;39.002;-94.584;2022-12-24T11:33:20;12.70;28.20
62809;DHT22;48848;39.002;-94.584;2022-12-24T11:35:47;12.50;27.80
62809;DHT22;48848;39.002;-94.584;2022-12-24T11:38:17;12.70;28.10
62809;DHT22;48848;39.002;-94.584;2022-12-24T11:40:45;13.00;27.70
62809;DHT22;48848;39.002;-94.584;2022-12-24T11:43:16;13.30;27.50
62809;DHT22;48848;39.002;-94.584;2022-12-24T11:45:49;13.50;27.20
62809;DHT22;48848;39.002;-94.584;2022-12-24T11:48:26;13.60;27.10
62809;DHT22;48848;39.002;-94.584;2022-12-24T11:50:56;13.80;27.30
62809;DHT22;48848;39.002;-94.584;2022-12-24T11:53:24;14.00;27.00
62809;DHT22;48848;39.002;-94.584;2022-12-24T11:55:52;14.10;26.70
62809;DHT22;48848;39.002;-94.584;2022-12-24T12:03:41;13.50;27.20
62809;DHT22;48848;39.002;-94.584;2022-12-24T12:06:19;13.20;27.90
62809;DHT22;48848;39.002;-94.584;2022-12-24T12:08:49;12.80;28.30
62809;DHT22;48848;39.002;-94.584;2022-12-24T12:11:15;12.50;28.40
62809;DHT22;48848;39.002;-94.584;2022-12-24T12:13:42;12.30;28.80
62809;DHT22;48848;39.002;-94.584;2022-12-24T12:18:59;11.80;28.90
62809;DHT22;48848;39.002;-94.584;2022-12-24T12:21:31;11.60;29.30
62809;DHT22;48848;39.002;-94.584;2022-12-24T12:23:58;11.50;28.90
62809;DHT22;48848;39.002;-94.584;2022-12-24T12:26:28;11.30;29.00
62809;DHT22;48848;39.002;-94.584;2022-12-24T12:31:25;11.00;29.10
62809;DHT22;48848;39.002;-94.584;2022-12-24T12:33:59;10.90;29.20
62809;DHT22;48848;39.002;-94.584;2022-12-24T12:36:32;10.80;29.30
62809;DHT22;48848;39.002;-94.584;2022-12-24T12:38:59;10.70;28.90
62809;DHT22;48848;39.002;-94.584;2022-12-24T12:54:45;12.00;28.40
62809;DHT22;48848;39.002;-94.584;2022-12-24T12:57:13;11.70;28.60
62809;DHT22;48848;39.002;-94.584;2022-12-24T13:02:20;11.10;29.20
62809;DHT22;48848;39.002;-94.584;2022-12-24T13:22:55;12.30;27.90
62809;DHT22;48848;39.002;-94.584;2022-12-24T13:25:38;11.90;28.40
62809;DHT22;48848;39.002;-94.584;2022-12-24T13:30:39;11.30;29.40
62809;DHT22;48848;39.002;-94.584;2022-12-24T13:33:09;11.10;29.00
62809;DHT22;48848;39.002;-94.584;2022-12-24T13:35:36;11.10;29.00
62809;DHT22;48848;39.002;-94.584;2022-12-24T13:40:46;11.70;28.30
62809;DHT22;48848;39.002;-94.584;2022-12-24T13:43:12;12.10;27.60
62809;DHT22;48848;39.002;-94.584;2022-12-24T13:53:46;12.10;28.40
62809;DHT22;48848;39.002;-94.584;2022-12-24T13:58:42;11.30;29.10
62809;DHT22;48848;39.002;-94.584;2022-12-24T14:03:42;11.30;28.90
62809;DHT22;48848;39.002;-94.584;2022-12-24T14:06:10;11.60;28.60
62809;DHT22;48848;39.002;-94.584;2022-12-24T14:08:40;11.90;27.30
62809;DHT22;48848;39.002;-94.584;2022-12-24T14:11:09;12.20;27.90
62809;DHT22;48848;39.002;-94.584;2022-12-24T14:16:26;12.70;27.60
62809;DHT22;48848;39.002;-94.584;2022-12-24T14:19:03;12.40;27.90
62809;DHT22;48848;39.002;-94.584;2022-12-24T14:21:35;12.00;28.00
62809;DHT22;48848;39.002;-94.584;2022-12-24T14:24:15;11.70;28.70
62809;DHT22;48848;39.002;-94.584;2022-12-24T14:26:46;11.40;28.90
62809;DHT22;48848;39.002;-94.584;2022-12-24T14:32:08;11.60;28.80
62809;DHT22;48848;39.002;-94.584;2022-12-24T14:34:30;11.90;28.30
62809;DHT22;48848;39.002;-94.584;2022-12-24T14:36:56;12.10;27.90
62809;DHT22;48848;39.002;-94.584;2022-12-24T14:39:30;12.40;27.90
62809;DHT22;48848;39.002;-94.584;2022-12-24T14:42:09;12.60;27.70
62809;DHT22;48848;39.002;-94.584;2022-12-24T14:44:40;12.70;27.70
62809;DHT22;48848;39.002;-94.584;2022-12-24T14:47:14;12.30;28.00
62809;DHT22;48848;39.002;-94.584;2022-12-24T14:52:28;11.80;29.00
62809;DHT22;48848;39.002;-94.584;2022-12-24T14:54:57;11.50;28.90
62809;DHT22;48848;39.002;-94.584;2022-12-24T14:57:23;11.40;29.00
62809;DHT22;48848;39.002;-94.584;2022-12-24T14:59:51;11.70;28.10
62809;DHT22;48848;39.002;-94.584;2022-12-24T15:05:06;12.30;28.00
62809;DHT22;48848;39.002;-94.584;2022-12-24T15:07:32;12.60;27.70
62809;DHT22;48848;39.002;-94.584;2022-12-24T15:09:59;12.80;27.80
62809;DHT22;48848;39.002;-94.584;2022-12-24T15:12:26;12.80;27.80
62809;DHT22;48848;39.002;-94.584;2022-12-24T15:14:51;12.40;28.20
62809;DHT22;48848;39.002;-94.584;2022-12-24T15:17:17;12.10;28.60
62809;DHT22;48848;39.002;-94.584;2022-12-24T15:19:44;11.90;29.00
62809;DHT22;48848;39.002;-94.584;2022-12-24T15:24:47;11.60;28.80
62809;DHT22;48848;39.002;-94.584;2022-12-24T15:27:14;11.80;28.60
62809;DHT22;48848;39.002;-94.584;2022-12-24T15:29:41;12.10;28.20
62809;DHT22;48848;39.002;-94.584;2022-12-24T15:32:11;12.40;28.10
62809;DHT22;48848;39.002;-94.584;2022-12-24T15:34:41;12.80;27.90
62809;DHT22;48848;39.002;-94.584;2022-12-24T15:39:37;13.20;27.80
62809;DHT22;48848;39.002;-94.584;2022-12-24T15:42:06;12.90;28.00
62809;DHT22;48848;39.002;-94.584;2022-12-24T15:44:54;12.40;28.10
62809;DHT22;48848;39.002;-94.584;2022-12-24T15:47:23;12.10;28.80
62809;DHT22;48848;39.002;-94.584;2022-12-24T15:49:50;11.80;29.30
62809;DHT22;48848;39.002;-94.584;2022-12-24T15:52:17;11.70;29.20
62809;DHT22;48848;39.002;-94.584;2022-12-24T15:54:48;12.00;28.90
62809;DHT22;48848;39.002;-94.584;2022-12-24T15:59:50;12.50;28.00
62809;DHT22;48848;39.002;-94.584;2022-12-24T16:07:41;13.00;27.70
62809;DHT22;48848;39.002;-94.584;2022-12-24T16:12:52;12.30;27.70
62809;DHT22;48848;39.002;-94.584;2022-12-24T16:15:18;12.00;28.70
62809;DHT22;48848;39.002;-94.584;2022-12-24T16:17:46;11.80;29.50
62809;DHT22;48848;39.002;-94.584;2022-12-24T16:20:17;11.70;29.30
62809;DHT22;48848;39.002;-94.584;2022-12-24T16:22:44;12.10;29.00
62809;DHT22;48848;39.002;-94.584;2022-12-24T16:27:42;12.80;28.40
62809;DHT22;48848;39.002;-94.584;2022-12-24T16:30:10;13.10;28.00
62809;DHT22;48848;39.002;-94.584;2022-12-24T16:32:36;13.40;27.70
62809;DHT22;48848;39.002;-94.584;2022-12-24T16:35:03;13.40;27.90
62809;DHT22;48848;39.002;-94.584;2022-12-24T16:37:29;13.10;28.00
62809;DHT22;48848;39.002;-94.584;2022-12-24T16:39:55;12.70;28.40
62809;DHT22;48848;39.002;-94.584;2022-12-24T16:42:21;12.40;28.90
62809;DHT22;48848;39.002;-94.584;2022-12-24T16:45:06;12.10;29.20
62809;DHT22;48848;39.002;-94.584;2022-12-24T16:47:33;11.90;29.10
62809;DHT22;48848;39.002;-94.584;2022-12-24T16:49:59;12.10;29.20
62809;DHT22;48848;39.002;-94.584;2022-12-24T16:52:26;12.50;28.70
62809;DHT22;48848;39.002;-94.584;2022-12-24T16:54:58;12.90;28.50
62809;DHT22;48848;39.002;-94.584;2022-12-24T16:57:24;13.20;28.30
62809;DHT22;48848;39.002;-94.584;2022-12-24T16:59:51;13.60;28.10
62809;DHT22;48848;39.002;-94.584;2022-12-24T17:02:18;13.80;27.80
62809;DHT22;48848;39.002;-94.584;2022-12-24T17:04:44;14.00;27.90
62809;DHT22;48848;39.002;-94.584;2022-12-24T17:07:11;14.20;27.80
62809;DHT22;48848;39.002;-94.584;2022-12-24T17:09:37;14.40;27.70
62809;DHT22;48848;39.002;-94.584;2022-12-24T17:12:03;14.60;27.60
62809;DHT22;48848;39.002;-94.584;2022-12-24T17:14:29;14.70;27.50
62809;DHT22;48848;39.002;-94.584;2022-12-24T17:16:55;14.80;27.40
62809;DHT22;48848;39.002;-94.584;2022-12-24T17:19:21;15.00;27.30
62809;DHT22;48848;39.002;-94.584;2022-12-24T17:21:46;15.10;27.20
62809;DHT22;48848;39.002;-94.584;2022-12-24T17:24:12;15.20;27.10
62809;DHT22;48848;39.002;-94.584;2022-12-24T17:26:38;14.70;27.30
62809;DHT22;48848;39.002;-94.584;2022-12-24T17:29:04;14.30;28.30